Spearfish, SD (57783)

7:58 AM MDT on September 30, 2014 (GMT -0600)
TMWC | Change Station
CLOSE
Current Station
Personal Weather Station
Location: Spearfish, SD
Elevation: 3687 ft
Nearby Weather Stations
Active Advisory: Areal Flood Watch Active Notice: Record Report

Elev 3687 ft 44.49 °N, 103.87 °W | Updated 1 second ago

Rain
Rain
51.8 °F
Feels Like 51.8 °F
N
5.8
Wind Variable Wind from NNW
Gusts 5.8 mph

Today
High -- | Low -- °F
--% Chance of Precip.
Yesterday
High -- | Low -- °F
Precip. -- in
6:52 AM 6:37 PM
Waxing Crescent, 37% visible
Pressure 29.63 in
Visibility 7.0 miles
Clouds Overcast 700 ft
Dew Point 51 °F
Humidity 97%
Rainfall 1.09 in
Snow Depth 1 in
UV 0.0 out of 12
Pollen .50 out of 12
Air Quality Not available.
Flu Activity Not available.
METAR KW43 301335Z AUTO 36009KT 7SM RA OVC007 10/10 A2963 RMK AO2

More Conditions Fewer Conditions

Pressure 29.63 in
Visibility 7.0 miles
Clouds Overcast 700 ft
Dew Point 51 °F
Humidity 97%
Rainfall 1.09 in
Snow Depth 1 in
UV 0.0 out of 12
Pollen .50 out of 12
Air Quality Not available.
Flu Activity Not available.
METAR KW43 301335Z AUTO 36009KT 7SM RA OVC007 10/10 A2963 RMK AO2

More Conditions Fewer Conditions

10-Day Weather Forecast

Almanac

Astronomy

Sep. 30, 2014 Rise Set
Actual Time 6:52 AM MDT 6:37 PM MDT
Civil Twilight 6:23 AM MDT 7:06 PM MDT
Nautical Twilight 5:49 AM MDT 7:40 PM MDT
Astronomical Twilight 5:15 AM MDT 8:14 PM MDT
Moon 1:13 PM MDT 10:59 PM MDT
Length of Visible Light 12h 43m
Length of Day
11h 45m
Tomorrow will be 3m 4s shorter.
Waxing Crescent, 37% of the Moon is Illuminated
Today
Waxing Crescent
Oct 1
First Quarter
Oct 8
Full
Oct 15
Last Quarter
Oct 23
New

Today's Extremes

State Highs State Lows

Community

WunderPhotos

Upload Photos

1,757,636 photos uploaded!

Nearby

Snow Depth

Station Depth Elevation
Blind Park 1 in 6890 ft

Earthquake Activity

City Distance Mag. Time & Date
No recent earthquake activity has been reported nearby.
Minimum magnitude displayed is 2.5.

Coastal Water Temperatures

Place Temperature
No Stations Reporting

Nearby Weather Stations